Time;durP1;ratioP1;P1;durP2;ratioP2;P2;SDS_P1;SDS_P2;PMS_P1;PMS_P2;Temp;Humidity;BMP_temperature;BMP_pressure;BME280_temperature;BME280_humidity;BME280_pressure;Samples;Min_cycle;Max_cycle;Signal;HPM_P1;HPM_P2
2022/04/08 00:01:25;;;;;;;1.25;0.47;;;6.30;86.40;;;;;;5112787;28;20405;-70
2022/04/08 00:03:52;;;;;;;1.40;0.55;;;6.40;86.50;;;;;;5112684;28;20036;-70
2022/04/08 00:06:18;;;;;;;1.95;0.50;;;6.20;86.40;;;;;;5113015;28;20032;-70
2022/04/08 00:08:45;;;;;;;2.38;0.60;;;6.30;86.50;;;;;;5112759;28;20032;-70
2022/04/08 00:11:11;;;;;;;1.67;0.63;;;6.40;86.50;;;;;;5113277;28;20408;-70
2022/04/08 00:13:37;;;;;;;0.50;0.25;;;6.30;86.50;;;;;;5112630;28;20040;-70
2022/04/08 00:16:03;;;;;;;0.65;0.43;;;6.20;86.40;;;;;;5111756;28;20054;-70
2022/04/08 00:18:29;;;;;;;3.05;0.55;;;6.30;86.40;;;;;;5093932;28;20067;-70
2022/04/08 00:20:56;;;;;;;1.80;0.50;;;6.20;86.40;;;;;;5112260;28;20051;-70
2022/04/08 00:23:22;;;;;;;2.60;0.77;;;6.20;86.40;;;;;;5093997;28;20050;-70
2022/04/08 00:25:48;;;;;;;2.13;0.60;;;6.30;86.40;;;;;;5112368;28;20399;-70
2022/04/08 00:28:13;;;;;;;1.95;0.57;;;6.20;86.30;;;;;;5112236;28;20040;-70
2022/04/08 00:30:39;;;;;;;1.48;0.43;;;6.30;86.40;;;;;;5112263;28;20032;-71
2022/04/08 00:33:05;;;;;;;1.33;0.30;;;6.20;86.30;;;;;;5112422;28;20048;-70
2022/04/08 00:35:31;;;;;;;3.97;0.55;;;6.30;86.30;;;;;;5112138;28;20052;-71
2022/04/08 00:37:57;;;;;;;1.83;0.35;;;6.20;86.30;;;;;;5094591;28;20041;-70
2022/04/08 00:40:23;;;;;;;1.33;0.47;;;6.20;86.30;;;;;;5112758;28;20043;-70
2022/04/08 00:42:49;;;;;;;1.48;0.50;;;6.20;86.30;;;;;;5111937;28;20036;-70
2022/04/08 00:45:15;;;;;;;3.47;0.88;;;6.30;86.40;;;;;;5112282;28;20059;-70
2022/04/08 00:47:44;;;;;;;2.58;0.73;;;6.20;86.50;;;;;;5112540;28;20396;-70
2022/04/08 00:50:11;;;;;;;2.35;0.77;;;6.10;86.50;;;;;;5111969;28;20389;-70
2022/04/08 00:52:41;;;;;;;3.05;0.57;;;6.10;86.60;;;;;;5093783;28;20043;-70
2022/04/08 00:55:08;;;;;;;2.00;0.52;;;6.20;86.70;;;;;;5091762;28;20393;-70
2022/04/08 00:57:34;;;;;;;1.70;0.63;;;6.10;86.70;;;;;;5112112;28;20120;-70
2022/04/08 01:00:04;;;;;;;3.70;0.75;;;6.10;86.80;;;;;;5112007;28;20051;-70
2022/04/08 01:02:31;;;;;;;2.88;0.60;;;6.10;86.80;;;;;;5093795;28;20477;-70
2022/04/08 01:04:56;;;;;;;2.13;0.80;;;6.10;86.70;;;;;;5111854;28;20039;-70
2022/04/08 01:07:23;;;;;;;3.08;0.50;;;6.10;86.60;;;;;;5112202;28;20046;-71
2022/04/08 01:09:51;;;;;;;1.95;0.75;;;6.10;86.50;;;;;;5094133;28;20046;-70
2022/04/08 01:12:17;;;;;;;1.27;0.40;;;6.10;86.50;;;;;;5093110;28;20052;-70
2022/04/08 01:14:43;;;;;;;3.50;0.68;;;6.10;86.50;;;;;;5111934;28;20431;-70
2022/04/08 01:17:09;;;;;;;1.95;0.43;;;6.10;86.50;;;;;;5112209;28;20073;-69
2022/04/08 01:19:34;;;;;;;0.75;0.30;;;6.10;86.50;;;;;;5112097;28;20047;-70
2022/04/08 01:22:00;;;;;;;2.38;0.60;;;6.10;86.50;;;;;;5111658;28;20035;-70
2022/04/08 01:24:28;;;;;;;4.57;0.68;;;6.00;86.50;;;;;;5111972;28;20044;-70
2022/04/08 01:26:54;;;;;;;1.27;0.45;;;6.10;86.60;;;;;;5114123;28;20085;-71
2022/04/08 01:29:20;;;;;;;1.55;0.70;;;6.00;86.60;;;;;;5115405;28;20043;-71
2022/04/08 01:31:46;;;;;;;1.88;0.50;;;5.90;86.50;;;;;;5115193;28;20040;-70
2022/04/08 01:34:12;;;;;;;2.22;0.50;;;5.90;86.50;;;;;;5115020;28;20058;-71
2022/04/08 01:36:38;;;;;;;2.08;0.60;;;5.90;86.40;;;;;;5096750;28;20493;-70
2022/04/08 01:39:05;;;;;;;1.05;0.40;;;5.90;86.40;;;;;;5115565;28;20027;-70
2022/04/08 01:41:31;;;;;;;2.17;0.30;;;5.90;86.40;;;;;;5115354;28;20036;-70
2022/04/08 01:43:57;;;;;;;3.15;0.60;;;5.80;86.40;;;;;;5115283;28;20039;-71
2022/04/08 01:46:23;;;;;;;1.23;0.50;;;5.80;86.50;;;;;;5096734;28;20044;-70
2022/04/08 01:48:53;;;;;;;1.35;0.35;;;5.70;86.40;;;;;;5114936;28;20046;-70
2022/04/08 01:51:19;;;;;;;3.60;0.60;;;5.70;86.40;;;;;;5114664;28;20035;-69
2022/04/08 01:53:45;;;;;;;2.72;0.52;;;5.70;86.40;;;;;;5115280;28;20497;-70
2022/04/08 01:56:11;;;;;;;0.65;0.30;;;5.60;86.40;;;;;;5114521;28;20042;-70
2022/04/08 01:58:37;;;;;;;2.90;0.60;;;5.60;86.50;;;;;;5114660;28;20062;-70
2022/04/08 02:01:03;;;;;;;1.77;0.38;;;5.50;86.50;;;;;;5096306;28;20404;-70
2022/04/08 02:03:29;;;;;;;3.10;0.60;;;5.50;86.50;;;;;;5094183;28;20044;-70
2022/04/08 02:05:55;;;;;;;3.28;0.57;;;5.50;86.60;;;;;;5114814;28;20046;-70
2022/04/08 02:08:21;;;;;;;2.35;0.40;;;5.40;86.50;;;;;;5114750;28;20043;-70
2022/04/08 02:10:47;;;;;;;1.00;0.32;;;5.60;86.60;;;;;;5114530;28;20039;-69
2022/04/08 02:13:13;;;;;;;1.77;0.65;;;5.40;86.50;;;;;;5114637;28;20035;-70
2022/04/08 02:15:38;;;;;;;0.95;0.50;;;5.40;86.60;;;;;;5114457;28;20111;-70
2022/04/08 02:18:04;;;;;;;3.20;0.60;;;5.40;86.60;;;;;;5114518;28;20055;-70
2022/04/08 02:20:32;;;;;;;0.75;0.43;;;5.40;86.70;;;;;;5114255;28;20130;-70
2022/04/08 02:22:59;;;;;;;1.88;0.40;;;5.30;86.60;;;;;;5114135;28;20048;-70
2022/04/08 02:25:26;;;;;;;0.85;0.47;;;5.20;86.60;;;;;;5114612;28;20051;-70
2022/04/08 02:27:53;;;;;;;0.82;0.35;;;5.20;86.70;;;;;;5094331;28;20044;-70
2022/04/08 02:30:18;;;;;;;1.10;0.30;;;5.10;86.70;;;;;;5114484;28;20397;-70
2022/04/08 02:32:44;;;;;;;0.90;0.50;;;5.20;86.80;;;;;;5114628;28;20047;-70
2022/04/08 02:35:10;;;;;;;0.82;0.20;;;5.20;86.80;;;;;;5114225;28;20035;-70
2022/04/08 02:37:37;;;;;;;1.95;0.50;;;5.10;86.80;;;;;;5093550;28;20046;-70
2022/04/08 02:40:03;;;;;;;1.13;0.30;;;5.10;86.90;;;;;;5114446;28;20481;-70
2022/04/08 02:42:31;;;;;;;1.75;0.30;;;5.00;86.90;;;;;;5114556;28;20706;-70
2022/04/08 02:44:57;;;;;;;0.32;0.30;;;4.90;86.90;;;;;;5113835;28;20123;-70
2022/04/08 02:47:24;;;;;;;0.50;0.30;;;4.80;86.90;;;;;;5113929;28;20050;-70
2022/04/08 02:49:49;;;;;;;1.88;0.50;;;4.90;87.00;;;;;;5114360;28;20046;-70
2022/04/08 02:52:15;;;;;;;1.52;0.57;;;4.90;87.10;;;;;;5114049;28;20127;-70
2022/04/08 02:54:41;;;;;;;1.75;0.40;;;4.80;87.00;;;;;;5114089;28;20047;-70
2022/04/08 02:57:07;;;;;;;0.52;0.32;;;4.80;87.00;;;;;;5095715;28;20048;-70
2022/04/08 02:59:32;;;;;;;1.65;0.50;;;4.80;87.00;;;;;;5113953;28;20035;-70
2022/04/08 03:01:59;;;;;;;1.40;0.43;;;4.80;86.90;;;;;;5094422;28;20036;-70
2022/04/08 03:04:26;;;;;;;2.92;0.68;;;4.80;86.90;;;;;;5113663;28;20044;-70
2022/04/08 03:06:53;;;;;;;0.82;0.57;;;4.80;86.80;;;;;;5114061;28;20080;-70
2022/04/08 03:09:20;;;;;;;1.88;0.47;;;4.80;86.70;;;;;;5113680;28;20496;-70
2022/04/08 03:11:45;;;;;;;1.80;0.50;;;4.80;86.60;;;;;;5077697;28;20044;-70
2022/04/08 03:14:11;;;;;;;0.30;0.30;;;4.80;86.60;;;;;;5095407;28;20044;-70
2022/04/08 03:16:37;;;;;;;0.75;0.30;;;4.90;86.60;;;;;;5113954;28;20046;-70
2022/04/08 03:19:03;;;;;;;1.58;0.47;;;4.80;86.60;;;;;;5095247;28;20111;-70
2022/04/08 03:21:30;;;;;;;1.42;0.55;;;4.80;86.60;;;;;;5113670;28;20055;-70
2022/04/08 03:23:57;;;;;;;0.75;0.40;;;4.80;86.50;;;;;;5113672;28;20046;-70
2022/04/08 03:26:23;;;;;;;3.35;0.60;;;4.90;86.50;;;;;;5113397;28;20119;-70
2022/04/08 03:28:49;;;;;;;1.60;0.90;;;4.90;86.30;;;;;;5113374;28;20913;-70
2022/04/08 03:31:14;;;;;;;2.25;0.60;;;5.00;86.20;;;;;;5113371;28;20431;-70
2022/04/08 03:33:40;;;;;;;2.10;0.40;;;5.00;86.00;;;;;;5113811;28;20092;-70
2022/04/08 03:36:07;;;;;;;2.75;0.40;;;5.00;85.90;;;;;;5113009;28;20045;-70
2022/04/08 03:38:32;;;;;;;0.55;0.30;;;5.00;85.90;;;;;;5113504;28;20058;-70
2022/04/08 03:40:58;;;;;;;0.98;0.40;;;5.00;85.80;;;;;;5113179;28;20477;-70
2022/04/08 03:43:24;;;;;;;1.65;0.68;;;5.00;85.80;;;;;;5112769;28;20506;-70
2022/04/08 03:45:50;;;;;;;0.68;0.40;;;5.00;85.80;;;;;;5094257;28;20043;-72
2022/04/08 03:48:15;;;;;;;0.45;0.30;;;4.90;85.90;;;;;;5094661;28;20500;-70
2022/04/08 03:50:41;;;;;;;1.88;0.40;;;4.90;86.00;;;;;;5111934;28;20116;-70
2022/04/08 03:53:09;;;;;;;1.13;0.30;;;4.80;86.00;;;;;;5095002;28;20051;-70
2022/04/08 03:55:35;;;;;;;0.63;0.30;;;4.90;86.20;;;;;;5093758;28;20490;-70
2022/04/08 03:58:01;;;;;;;0.43;0.20;;;4.80;86.30;;;;;;5112692;28;20051;-70
2022/04/08 04:00:27;;;;;;;1.38;0.30;;;4.70;86.30;;;;;;5112849;28;20059;-70
2022/04/08 04:02:52;;;;;;;0.55;0.28;;;4.70;86.40;;;;;;5094622;28;20130;-71
2022/04/08 04:05:18;;;;;;;0.65;0.30;;;4.70;86.50;;;;;;5113466;28;20044;-70
2022/04/08 04:07:44;;;;;;;1.48;0.20;;;4.60;86.60;;;;;;5094968;28;20035;-70
2022/04/08 04:10:11;;;;;;;0.17;0.10;;;4.50;86.70;;;;;;5112893;28;20080;-70
2022/04/08 04:12:38;;;;;;;0.20;0.20;;;4.50;86.80;;;;;;5112846;28;20113;-70
2022/04/08 04:15:05;;;;;;;0.10;0.10;;;4.40;86.80;;;;;;5113090;28;20479;-70
2022/04/08 04:17:30;;;;;;;0.52;0.25;;;4.40;86.90;;;;;;5113198;28;20071;-70
2022/04/08 04:19:56;;;;;;;2.22;0.17;;;4.30;87.00;;;;;;5113432;28;20047;-70
2022/04/08 04:22:22;;;;;;;1.27;0.20;;;4.30;87.10;;;;;;5112847;28;20092;-70
2022/04/08 04:24:47;;;;;;;1.75;0.10;;;4.20;87.20;;;;;;5094440;28;20048;-70
2022/04/08 04:27:13;;;;;;;0.10;0.10;;;4.20;87.30;;;;;;5112388;28;20047;-71
2022/04/08 04:29:39;;;;;;;0.20;0.20;;;4.10;87.30;;;;;;5113149;28;20039;-70
2022/04/08 04:32:06;;;;;;;0.45;0.20;;;4.20;87.30;;;;;;5112425;28;20035;-70
2022/04/08 04:34:33;;;;;;;0.20;0.10;;;4.20;87.40;;;;;;5112656;28;20042;-70
2022/04/08 04:36:59;;;;;;;0.45;0.15;;;4.10;87.50;;;;;;5094691;28;20043;-70
2022/04/08 04:39:25;;;;;;;0.03;0.03;;;4.00;87.60;;;;;;5112764;28;20044;-70
2022/04/08 04:41:50;;;;;;;0.10;0.10;;;4.00;87.50;;;;;;5112603;28;20477;-70
2022/04/08 04:44:16;;;;;;;1.23;0.10;;;4.00;87.60;;;;;;5112930;28;20054;-71
2022/04/08 04:46:43;;;;;;;0.25;0.10;;;4.00;87.70;;;;;;5094665;28;20036;-72
2022/04/08 04:49:10;;;;;;;0.25;0.17;;;4.00;87.70;;;;;;5112769;28;20388;-71
2022/04/08 04:51:36;;;;;;;0.43;0.15;;;4.00;87.80;;;;;;5113168;28;20066;-72
2022/04/08 04:54:02;;;;;;;0.32;0.20;;;3.90;87.70;;;;;;5112391;28;20044;-70
2022/04/08 04:56:28;;;;;;;0.30;0.20;;;3.90;87.70;;;;;;5112096;28;20059;-71
2022/04/08 04:58:54;;;;;;;0.10;0.10;;;3.90;87.70;;;;;;5112395;28;20115;-70
2022/04/08 05:01:20;;;;;;;0.75;0.20;;;3.90;87.60;;;;;;5095552;28;20050;-71
2022/04/08 05:03:45;;;;;;;0.57;0.20;;;3.90;87.60;;;;;;5097905;28;20044;-71
2022/04/08 05:06:11;;;;;;;0.10;0.10;;;3.90;87.70;;;;;;5116108;28;20031;-71
2022/04/08 05:08:37;;;;;;;0.73;0.20;;;3.90;87.70;;;;;;5115721;28;20040;-71
2022/04/08 05:11:05;;;;;;;0.30;0.20;;;3.90;87.60;;;;;;5097402;28;20044;-70
2022/04/08 05:13:32;;;;;;;0.55;0.22;;;3.90;87.60;;;;;;5115412;28;20511;-71
2022/04/08 05:15:58;;;;;;;0.55;0.30;;;4.00;87.60;;;;;;5115505;28;20047;-71
2022/04/08 05:18:25;;;;;;;0.15;0.13;;;4.00;87.50;;;;;;5097821;28;20063;-71
2022/04/08 05:20:52;;;;;;;0.20;0.20;;;4.00;87.50;;;;;;5078849;28;20505;-71
2022/04/08 05:23:19;;;;;;;1.02;0.28;;;4.00;87.40;;;;;;5080802;28;20044;-71
2022/04/08 05:25:44;;;;;;;1.52;0.30;;;4.00;87.40;;;;;;5115398;28;20088;-71
2022/04/08 05:28:12;;;;;;;0.50;0.20;;;4.00;87.30;;;;;;5115643;28;20039;-71
2022/04/08 05:30:39;;;;;;;0.32;0.30;;;4.10;87.30;;;;;;5116087;28;20043;-71
2022/04/08 05:33:04;;;;;;;2.47;0.40;;;4.10;87.20;;;;;;5097028;28;20036;-71
2022/04/08 05:35:30;;;;;;;0.85;0.22;;;4.10;87.10;;;;;;5116051;28;20130;-71
2022/04/08 05:37:56;;;;;;;2.40;0.40;;;4.10;87.10;;;;;;5115349;28;20031;-71
2022/04/08 05:40:22;;;;;;;0.55;0.30;;;4.20;87.10;;;;;;5115474;28;20569;-71
2022/04/08 05:42:48;;;;;;;0.25;0.25;;;4.20;87.00;;;;;;5115444;28;20067;-71
2022/04/08 05:45:18;;;;;;;0.52;0.40;;;4.30;86.90;;;;;;5096034;28;20444;-71
2022/04/08 05:47:47;;;;;;;0.43;0.32;;;4.30;86.80;;;;;;5097741;28;20031;-72
2022/04/08 05:50:13;;;;;;;0.45;0.30;;;4.30;86.80;;;;;;5115326;28;20044;-71
2022/04/08 05:52:40;;;;;;;1.55;0.40;;;4.30;86.70;;;;;;5115236;28;20178;-71
2022/04/08 05:55:06;;;;;;;1.80;0.30;;;4.30;86.70;;;;;;5115193;28;20043;-71
2022/04/08 05:57:40;;;;;;;1.00;0.40;;;4.40;86.70;;;;;;5115398;28;20046;-72
2022/04/08 06:00:09;;;;;;;1.35;0.47;;;4.40;86.60;;;;;;5097016;28;20068;-71
2022/04/08 06:02:34;;;;;;;1.02;0.40;;;4.50;86.50;;;;;;5096074;28;20055;-72
2022/04/08 06:05:00;;;;;;;1.35;0.50;;;4.60;86.40;;;;;;5114842;28;20082;-72
2022/04/08 06:07:26;;;;;;;0.32;0.32;;;4.60;86.30;;;;;;5114900;28;20040;-71
2022/04/08 06:09:52;;;;;;;1.02;0.35;;;4.60;86.20;;;;;;5115053;28;20092;-71
2022/04/08 06:12:18;;;;;;;0.77;0.50;;;4.70;86.20;;;;;;5114267;28;20067;-71
2022/04/08 06:14:44;;;;;;;1.08;0.30;;;4.70;86.20;;;;;;5096676;28;20077;-71
2022/04/08 06:17:09;;;;;;;0.30;0.30;;;4.70;86.10;;;;;;5114480;28;20063;-71
2022/04/08 06:19:35;;;;;;;1.30;0.40;;;4.80;86.10;;;;;;5114907;28;20489;-71
2022/04/08 06:22:00;;;;;;;1.08;0.60;;;4.70;86.10;;;;;;5114344;28;20139;-70
2022/04/08 06:24:26;;;;;;;0.85;0.45;;;4.80;86.10;;;;;;5114364;28;20075;-71
2022/04/08 06:26:52;;;;;;;2.22;0.50;;;4.80;86.00;;;;;;5114831;28;20122;-70
2022/04/08 06:29:18;;;;;;;0.80;0.40;;;4.80;86.00;;;;;;5114776;28;20382;-71
2022/04/08 06:31:43;;;;;;;1.55;0.50;;;4.90;86.00;;;;;;5114796;28;20035;-71
2022/04/08 06:34:09;;;;;;;2.97;0.60;;;4.90;86.00;;;;;;5114873;28;20043;-71
2022/04/08 06:36:35;;;;;;;1.00;0.40;;;5.00;85.90;;;;;;5114836;28;20044;-71
2022/04/08 06:39:00;;;;;;;1.02;0.47;;;5.00;85.80;;;;;;5096179;28;20058;-71
2022/04/08 06:41:26;;;;;;;2.25;0.45;;;5.10;85.90;;;;;;5096551;28;20036;-71
2022/04/08 06:43:52;;;;;;;0.73;0.52;;;5.20;85.90;;;;;;5114193;28;20048;-71
2022/04/08 06:46:17;;;;;;;0.90;0.52;;;5.20;85.80;;;;;;5114889;28;20181;-71
2022/04/08 06:48:43;;;;;;;0.85;0.45;;;5.30;85.70;;;;;;5096008;28;20102;-71
2022/04/08 06:51:09;;;;;;;0.40;0.30;;;5.40;85.60;;;;;;5114050;28;20042;-70
2022/04/08 06:53:35;;;;;;;0.88;0.52;;;5.40;85.50;;;;;;5114396;28;20043;-70
2022/04/08 06:56:02;;;;;;;0.88;0.40;;;5.50;85.40;;;;;;5114429;28;20047;-71
2022/04/08 06:58:30;;;;;;;0.80;0.38;;;5.60;85.40;;;;;;5114533;28;20123;-70
2022/04/08 07:00:55;;;;;;;0.63;0.32;;;5.60;85.30;;;;;;5114510;28;20063;-70
2022/04/08 07:03:22;;;;;;;0.77;0.43;;;5.70;85.30;;;;;;5114382;28;20090;-70
2022/04/08 07:05:47;;;;;;;1.00;0.50;;;5.80;85.20;;;;;;5114226;28;20473;-70
2022/04/08 07:08:13;;;;;;;0.80;0.40;;;5.80;85.10;;;;;;5114225;28;20063;-71
2022/04/08 07:10:39;;;;;;;0.40;0.40;;;5.90;85.10;;;;;;5113797;28;20456;-71
2022/04/08 07:13:06;;;;;;;1.30;0.55;;;5.90;85.10;;;;;;5113801;28;20027;-71
2022/04/08 07:15:33;;;;;;;2.00;0.60;;;6.00;85.00;;;;;;5114251;28;20040;-71
2022/04/08 07:17:59;;;;;;;1.65;0.35;;;6.20;85.00;;;;;;5113653;28;20042;-71
2022/04/08 07:20:25;;;;;;;1.40;0.50;;;6.20;84.70;;;;;;5113682;28;20122;-72
2022/04/08 07:22:52;;;;;;;1.05;0.50;;;6.30;84.60;;;;;;5093972;28;20046;-72
2022/04/08 07:25:18;;;;;;;0.98;0.70;;;6.30;84.40;;;;;;5076222;28;20032;-71
2022/04/08 07:27:49;;;;;;;0.80;0.50;;;6.40;84.40;;;;;;5113778;28;20035;-71
2022/04/08 07:30:17;;;;;;;1.58;0.57;;;6.40;84.40;;;;;;5095187;28;20035;-71
2022/04/08 07:32:44;;;;;;;0.88;0.57;;;6.50;84.40;;;;;;5113407;28;20055;-71
2022/04/08 07:35:10;;;;;;;1.05;0.63;;;6.60;84.30;;;;;;5113822;28;20176;-71
2022/04/08 07:37:36;;;;;;;0.60;0.52;;;6.60;84.20;;;;;;5113439;28;20096;-71
2022/04/08 07:40:07;;;;;;;0.70;0.50;;;6.70;84.10;;;;;;5113377;28;20052;-71
2022/04/08 07:42:33;;;;;;;2.07;0.50;;;6.80;84.10;;;;;;5113257;28;20043;-71
2022/04/08 07:44:58;;;;;;;1.50;0.50;;;6.90;84.00;;;;;;5077184;28;20347;-71
2022/04/08 07:47:28;;;;;;;0.68;0.60;;;6.90;83.90;;;;;;5077161;28;20103;-72
2022/04/08 07:49:57;;;;;;;0.95;0.50;;;6.90;83.80;;;;;;5113610;28;20040;-71
2022/04/08 07:52:24;;;;;;;1.10;0.50;;;7.10;83.80;;;;;;5113865;28;20046;-71
2022/04/08 07:54:49;;;;;;;1.05;0.60;;;7.10;83.60;;;;;;5113574;28;20503;-71
2022/04/08 07:57:15;;;;;;;0.70;0.40;;;7.20;83.60;;;;;;5094941;28;20047;-71
2022/04/08 07:59:41;;;;;;;2.05;0.60;;;7.20;83.60;;;;;;5113327;28;20047;-71
2022/04/08 08:02:06;;;;;;;1.30;0.47;;;7.20;83.40;;;;;;5093139;28;20044;-71
2022/04/08 08:04:32;;;;;;;1.80;0.70;;;7.30;83.40;;;;;;5113093;28;20497;-72
2022/04/08 08:06:59;;;;;;;1.05;0.50;;;7.30;83.40;;;;;;5113286;28;20436;-71
2022/04/08 08:09:24;;;;;;;0.85;0.40;;;7.30;83.30;;;;;;5077884;28;20039;-71
2022/04/08 08:11:50;;;;;;;1.23;0.50;;;7.40;83.20;;;;;;5095148;28;20042;-71
2022/04/08 08:14:16;;;;;;;0.82;0.50;;;7.50;83.20;;;;;;5077189;28;20401;-71
2022/04/08 08:16:41;;;;;;;1.48;0.60;;;7.50;83.10;;;;;;5113211;28;20392;-70
2022/04/08 08:19:07;;;;;;;0.85;0.55;;;7.60;83.10;;;;;;5092672;28;20046;-70
2022/04/08 08:21:33;;;;;;;0.82;0.50;;;7.60;82.90;;;;;;5112733;28;20134;-70
2022/04/08 08:23:58;;;;;;;1.15;0.40;;;7.70;82.80;;;;;;5113059;28;20036;-70
2022/04/08 08:26:25;;;;;;;1.50;0.50;;;7.70;82.70;;;;;;5112595;28;20035;-70
2022/04/08 08:28:52;;;;;;;1.08;0.50;;;7.80;82.60;;;;;;5112646;28;20040;-70
2022/04/08 08:31:18;;;;;;;0.95;0.50;;;7.80;82.50;;;;;;5094471;28;20079;-70
2022/04/08 08:33:43;;;;;;;1.90;0.47;;;8.00;82.60;;;;;;5113062;28;20126;-69
2022/04/08 08:36:09;;;;;;;2.70;0.70;;;8.00;82.50;;;;;;5096006;28;20051;-70
2022/04/08 08:38:35;;;;;;;1.60;0.55;;;8.10;82.50;;;;;;5081358;28;20043;-71
2022/04/08 08:41:02;;;;;;;1.98;0.52;;;8.10;82.30;;;;;;5097915;28;20043;-70
2022/04/08 08:43:28;;;;;;;0.95;0.38;;;8.10;82.30;;;;;;5116125;28;20047;-70
2022/04/08 08:45:56;;;;;;;0.57;0.40;;;8.10;82.30;;;;;;5116387;28;20157;-71
2022/04/08 08:48:23;;;;;;;0.50;0.40;;;8.30;82.30;;;;;;5116158;28;20063;-70
2022/04/08 08:50:52;;;;;;;0.98;0.40;;;8.20;82.00;;;;;;5115978;28;20046;-71
2022/04/08 08:53:19;;;;;;;0.73;0.50;;;8.20;82.10;;;;;;5115741;28;20038;-71
2022/04/08 08:55:48;;;;;;;3.40;0.60;;;8.30;82.20;;;;;;5116097;28;20092;-71
2022/04/08 08:58:14;;;;;;;1.65;0.60;;;8.30;82.10;;;;;;5116519;28;20063;-71
2022/04/08 09:00:40;;;;;;;0.55;0.40;;;8.40;82.00;;;;;;5115914;28;20078;-71
2022/04/08 09:03:06;;;;;;;1.17;0.52;;;8.40;82.00;;;;;;5115910;28;20098;-71
2022/04/08 09:05:41;;;;;;;1.55;0.60;;;8.40;82.00;;;;;;5115641;28;20039;-70
2022/04/08 09:08:08;;;;;;;1.45;0.57;;;8.40;82.00;;;;;;5115567;28;20493;-72
2022/04/08 09:10:37;;;;;;;1.25;0.65;;;8.30;82.00;;;;;;5116176;28;20046;-71
2022/04/08 09:13:07;;;;;;;1.38;0.70;;;8.40;82.10;;;;;;5116108;28;20106;-72
2022/04/08 09:15:37;;;;;;;2.05;0.88;;;8.30;82.00;;;;;;5096007;28;20036;-71
2022/04/08 09:18:14;;;;;;;1.75;0.55;;;8.50;82.10;;;;;;5097256;28;20040;-72
2022/04/08 09:20:44;;;;;;;1.25;0.60;;;8.50;82.00;;;;;;5115511;28;20088;-70
2022/04/08 09:23:11;;;;;;;1.02;0.63;;;8.60;81.90;;;;;;5115945;28;20039;-71
2022/04/08 09:25:38;;;;;;;0.73;0.50;;;8.60;81.70;;;;;;5115530;28;20142;-71
2022/04/08 09:28:07;;;;;;;1.23;0.50;;;8.70;81.60;;;;;;5095901;28;20028;-71
2022/04/08 09:30:33;;;;;;;0.82;0.50;;;8.80;81.50;;;;;;5115379;28;20044;-71
2022/04/08 09:33:10;;;;;;;0.77;0.65;;;8.80;81.40;;;;;;5115365;28;20154;-71
2022/04/08 09:35:40;;;;;;;0.85;0.50;;;8.90;81.30;;;;;;5115562;28;20046;-70
2022/04/08 09:38:06;;;;;;;2.25;0.52;;;9.00;81.20;;;;;;5115167;28;20489;-71
2022/04/08 09:40:40;;;;;;;0.98;0.52;;;9.00;81.10;;;;;;5097017;28;20044;-71
2022/04/08 09:43:07;;;;;;;1.92;0.60;;;9.20;80.90;;;;;;5115339;28;20515;-71
2022/04/08 09:45:33;;;;;;;2.25;1.02;;;9.10;80.70;;;;;;5115411;28;20063;-71
2022/04/08 09:48:00;;;;;;;0.55;0.52;;;9.10;80.80;;;;;;5114901;28;20040;-71
2022/04/08 09:50:26;;;;;;;1.98;0.68;;;9.10;80.90;;;;;;5115038;28;20496;-71
2022/04/08 09:52:53;;;;;;;1.25;0.70;;;9.10;81.00;;;;;;5114589;28;20040;-71
2022/04/08 09:55:21;;;;;;;1.55;0.68;;;9.10;81.00;;;;;;5097198;28;20039;-71
2022/04/08 09:57:49;;;;;;;2.42;0.93;;;9.10;81.00;;;;;;5114821;28;20051;-70
2022/04/08 10:00:16;;;;;;;1.90;0.80;;;9.10;80.80;;;;;;5115228;28;20084;-71
2022/04/08 10:02:45;;;;;;;0.85;0.65;;;9.10;80.80;;;;;;5079238;28;20046;-71
2022/04/08 10:05:12;;;;;;;1.70;0.80;;;9.00;80.70;;;;;;5096437;28;20040;-71
2022/04/08 10:07:39;;;;;;;0.43;0.38;;;9.00;80.70;;;;;;5097284;28;20078;-71
2022/04/08 10:10:20;;;;;;;2.33;0.50;;;9.00;80.90;;;;;;5114784;28;20065;-71
2022/04/08 10:13:12;;;;;;;1.30;0.52;;;9.10;80.70;;;;;;5096531;28;20047;-71
2022/04/08 10:15:43;;;;;;;0.93;0.55;;;9.20;80.50;;;;;;5114761;28;20047;-72
2022/04/08 10:18:09;;;;;;;0.75;0.43;;;9.30;80.50;;;;;;5114696;28;20070;-71
2022/04/08 10:20:37;;;;;;;1.20;0.38;;;9.30;80.30;;;;;;5114843;28;20485;-71
2022/04/08 10:23:13;;;;;;;0.70;0.50;;;9.30;80.30;;;;;;5096241;28;20101;-71
2022/04/08 10:25:42;;;;;;;1.85;0.55;;;9.40;80.30;;;;;;5114662;28;20209;-71
2022/04/08 10:28:09;;;;;;;1.95;0.60;;;9.50;80.20;;;;;;5096322;28;20093;-70
2022/04/08 10:30:48;;;;;;;0.55;0.55;;;9.50;80.10;;;;;;5114109;28;20047;-70
2022/04/08 10:33:24;;;;;;;1.85;0.73;;;9.50;80.10;;;;;;5079847;28;20441;-71
2022/04/08 10:35:53;;;;;;;1.85;0.70;;;9.40;80.00;;;;;;5114040;28;20126;-71
2022/04/08 10:38:19;;;;;;;2.58;0.73;;;9.40;80.00;;;;;;5114060;28;20082;-71
2022/04/08 10:40:53;;;;;;;0.60;0.50;;;9.40;80.00;;;;;;5096101;28;20067;-71
2022/04/08 10:43:19;;;;;;;1.10;0.60;;;9.40;80.00;;;;;;5114349;28;20085;-71
2022/04/08 10:45:58;;;;;;;1.48;0.60;;;9.40;80.00;;;;;;5114265;28;20040;-71
2022/04/08 10:48:32;;;;;;;1.27;0.70;;;9.40;80.00;;;;;;5094334;28;20089;-70
2022/04/08 10:51:13;;;;;;;1.40;0.77;;;9.50;80.10;;;;;;5114214;28;20082;-70
2022/04/08 10:53:41;;;;;;;1.20;0.63;;;9.50;79.90;;;;;;5114191;28;20445;-71
2022/04/08 10:56:12;;;;;;;2.78;0.90;;;9.60;79.70;;;;;;5096267;28;20508;-71
2022/04/08 10:58:49;;;;;;;0.57;0.57;;;9.60;79.50;;;;;;5113298;28;20043;-71
2022/04/08 11:01:24;;;;;;;0.70;0.65;;;9.60;79.40;;;;;;5114545;28;20038;-71
2022/04/08 11:04:00;;;;;;;1.30;0.70;;;9.50;79.40;;;;;;5113818;28;20393;-71
2022/04/08 11:06:27;;;;;;;1.30;0.80;;;9.60;80.10;;;;;;5113781;28;20035;-71
2022/04/08 11:08:54;;;;;;;1.15;0.60;;;9.70;79.40;;;;;;5113729;28;20035;-71
2022/04/08 11:11:30;;;;;;;2.00;0.85;;;9.70;79.30;;;;;;5114030;28;20051;-70
2022/04/08 11:13:58;;;;;;;2.63;0.95;;;9.70;79.10;;;;;;5095727;28;20044;-70
2022/04/08 11:16:26;;;;;;;0.88;0.70;;;9.70;79.00;;;;;;5114112;28;20036;-71
2022/04/08 11:18:52;;;;;;;1.83;0.70;;;9.70;79.00;;;;;;5113900;28;20040;-70
2022/04/08 11:21:19;;;;;;;1.55;0.90;;;9.70;79.00;;;;;;5095727;28;20043;-71
2022/04/08 11:23:58;;;;;;;1.35;0.80;;;9.70;79.00;;;;;;5094233;28;20043;-71
2022/04/08 11:26:25;;;;;;;1.15;0.70;;;9.80;79.00;;;;;;5114235;28;20043;-71
2022/04/08 11:28:51;;;;;;;2.40;0.70;;;9.90;78.90;;;;;;5113689;28;20039;-71
2022/04/08 11:31:18;;;;;;;0.68;0.55;;;10.00;78.60;;;;;;5113514;28;20035;-70
2022/04/08 11:33:44;;;;;;;2.78;0.88;;;10.00;78.40;;;;;;5096140;28;20042;-69
2022/04/08 11:36:10;;;;;;;1.15;0.88;;;10.00;78.20;;;;;;5113317;28;20040;-69
2022/04/08 11:38:36;;;;;;;2.42;1.20;;;9.90;78.30;;;;;;5113347;28;20502;-69
2022/04/08 11:41:03;;;;;;;0.70;0.70;;;9.90;78.20;;;;;;5078120;28;20485;-69
2022/04/08 11:43:29;;;;;;;0.80;0.80;;;9.90;78.30;;;;;;5113887;28;20049;-69
2022/04/08 11:45:55;;;;;;;1.10;0.80;;;10.00;78.60;;;;;;5077830;28;20100;-69
2022/04/08 11:48:23;;;;;;;0.90;0.68;;;10.00;78.50;;;;;;5113354;28;20055;-69
2022/04/08 11:50:50;;;;;;;0.85;0.80;;;10.00;78.30;;;;;;5112992;28;20032;-70
2022/04/08 11:53:17;;;;;;;1.45;0.80;;;10.00;78.30;;;;;;5093151;28;20490;-70
2022/04/08 11:56:02;;;;;;;1.70;0.70;;;10.00;78.30;;;;;;5113669;28;20039;-70
2022/04/08 11:58:29;;;;;;;0.93;0.80;;;9.90;78.30;;;;;;5113432;28;20516;-70
2022/04/08 12:00:56;;;;;;;1.77;1.00;;;9.80;78.60;;;;;;5113046;28;20050;-71
2022/04/08 12:03:26;;;;;;;1.27;0.70;;;9.70;79.00;;;;;;5112718;28;20035;-70
2022/04/08 12:05:52;;;;;;;0.68;0.60;;;9.60;79.10;;;;;;5112978;28;20044;-70
2022/04/08 12:08:19;;;;;;;0.98;0.75;;;9.50;79.20;;;;;;5113093;28;20473;-70
2022/04/08 12:10:49;;;;;;;0.95;0.60;;;9.40;79.40;;;;;;5111546;28;20063;-70
2022/04/08 12:13:18;;;;;;;0.90;0.70;;;9.30;79.90;;;;;;5113409;28;20466;-70
2022/04/08 12:15:45;;;;;;;1.27;0.70;;;9.20;80.20;;;;;;5094424;28;20047;-70
2022/04/08 12:18:12;;;;;;;0.93;0.40;;;9.20;80.40;;;;;;5113313;28;20557;-69
2022/04/08 12:20:40;;;;;;;0.90;0.47;;;9.20;80.50;;;;;;5112700;28;20118;-70
2022/04/08 12:23:10;;;;;;;1.17;0.50;;;9.20;80.40;;;;;;5093255;28;20032;-70
2022/04/08 12:25:37;;;;;;;0.45;0.45;;;9.20;80.50;;;;;;5112892;28;20035;-70
2022/04/08 12:28:11;;;;;;;0.80;0.60;;;9.30;80.50;;;;;;5112630;28;20050;-70
2022/04/08 12:30:38;;;;;;;0.73;0.60;;;9.30;80.40;;;;;;5112695;28;20039;-70
2022/04/08 12:33:04;;;;;;;1.35;0.70;;;9.40;80.20;;;;;;5112674;28;20044;-70
2022/04/08 12:35:29;;;;;;;0.95;0.60;;;9.40;79.90;;;;;;5112339;28;20097;-71
2022/04/08 12:37:57;;;;;;;2.42;0.90;;;9.50;79.80;;;;;;5112862;28;20040;-70
2022/04/08 12:40:22;;;;;;;1.73;0.95;;;9.60;79.60;;;;;;5112754;28;20040;-70
2022/04/08 12:42:48;;;;;;;1.98;1.00;;;9.70;79.40;;;;;;5092426;28;20043;-70
2022/04/08 12:45:15;;;;;;;1.35;0.70;;;9.70;79.20;;;;;;5094380;28;20401;-71
2022/04/08 12:47:41;;;;;;;1.63;0.90;;;9.80;79.00;;;;;;5112586;28;20039;-70
2022/04/08 12:50:08;;;;;;;1.52;0.90;;;9.80;78.70;;;;;;5112409;28;20039;-71
2022/04/08 12:52:33;;;;;;;1.75;0.65;;;9.90;78.80;;;;;;5112539;28;20074;-70
2022/04/08 12:54:59;;;;;;;0.80;0.80;;;9.90;78.50;;;;;;5112797;28;20063;-69
2022/04/08 12:57:25;;;;;;;0.80;0.80;;;9.90;78.50;;;;;;5112429;28;20553;-69